sensor_id;sensor_type;location;lat;lon;timestamp;pressure;altitude;pressure_sealevel;temperature;humidity
58668;BME280;59852;43.086;25.634;2023-05-09T00:02:21;99301.53;;;12.73;80.72
58668;BME280;59852;43.086;25.634;2023-05-09T00:04:47;99296.81;;;12.65;79.92
58668;BME280;59852;43.086;25.634;2023-05-09T00:07:12;99304.84;;;12.51;81.86
58668;BME280;59852;43.086;25.634;2023-05-09T00:09:38;99302.75;;;12.43;81.66
58668;BME280;59852;43.086;25.634;2023-05-09T00:12:03;99298.56;;;12.41;81.85
58668;BME280;59852;43.086;25.634;2023-05-09T00:14:29;99298.00;;;12.61;81.84
58668;BME280;59852;43.086;25.634;2023-05-09T00:16:54;99301.28;;;12.26;84.23
58668;BME280;59852;43.086;25.634;2023-05-09T00:19:21;99299.34;;;12.54;81.69
58668;BME280;59852;43.086;25.634;2023-05-09T00:21:46;99295.81;;;12.42;81.44
58668;BME280;59852;43.086;25.634;2023-05-09T00:24:11;99299.59;;;12.51;81.52
58668;BME280;59852;43.086;25.634;2023-05-09T00:26:37;99295.16;;;12.39;82.26
58668;BME280;59852;43.086;25.634;2023-05-09T00:29:02;99301.75;;;12.57;81.38
58668;BME280;59852;43.086;25.634;2023-05-09T00:31:28;99300.94;;;12.44;81.62
58668;BME280;59852;43.086;25.634;2023-05-09T00:33:53;99302.59;;;12.57;81.12
58668;BME280;59852;43.086;25.634;2023-05-09T00:36:18;99304.41;;;12.44;81.51
58668;BME280;59852;43.086;25.634;2023-05-09T00:38:44;99307.38;;;12.40;82.14
58668;BME280;59852;43.086;25.634;2023-05-09T00:41:09;99304.94;;;12.37;81.94
58668;BME280;59852;43.086;25.634;2023-05-09T00:43:34;99300.69;;;12.10;83.42
58668;BME280;59852;43.086;25.634;2023-05-09T00:46:00;99297.59;;;12.29;82.48
58668;BME280;59852;43.086;25.634;2023-05-09T00:48:25;99305.38;;;12.30;82.71
58668;BME280;59852;43.086;25.634;2023-05-09T00:50:51;99292.78;;;12.35;82.25
58668;BME280;59852;43.086;25.634;2023-05-09T00:53:19;99293.75;;;12.22;82.70
58668;BME280;59852;43.086;25.634;2023-05-09T00:55:45;99299.91;;;12.08;84.56
58668;BME280;59852;43.086;25.634;2023-05-09T00:58:10;99300.88;;;12.07;84.95
58668;BME280;59852;43.086;25.634;2023-05-09T01:00:36;99306.44;;;12.02;83.98
58668;BME280;59852;43.086;25.634;2023-05-09T01:03:02;99301.53;;;12.11;83.22
58668;BME280;59852;43.086;25.634;2023-05-09T01:05:51;99300.66;;;12.35;82.62
58668;BME280;59852;43.086;25.634;2023-05-09T01:10:55;99308.94;;;12.17;84.03
58668;BME280;59852;43.086;25.634;2023-05-09T01:13:26;99301.72;;;11.95;84.92
58668;BME280;59852;43.086;25.634;2023-05-09T01:15:53;99306.53;;;12.14;84.09
58668;BME280;59852;43.086;25.634;2023-05-09T01:18:24;99299.38;;;12.28;84.63
58668;BME280;59852;43.086;25.634;2023-05-09T01:20:54;99302.44;;;12.35;83.26
58668;BME280;59852;43.086;25.634;2023-05-09T01:26:03;99304.44;;;12.19;83.33
58668;BME280;59852;43.086;25.634;2023-05-09T01:30:54;99303.97;;;11.74;86.26
58668;BME280;59852;43.086;25.634;2023-05-09T01:33:20;99302.66;;;12.06;85.17
58668;BME280;59852;43.086;25.634;2023-05-09T01:35:52;99299.25;;;11.79;86.26
58668;BME280;59852;43.086;25.634;2023-05-09T01:38:21;99295.00;;;12.03;84.89
58668;BME280;59852;43.086;25.634;2023-05-09T01:40:48;99303.72;;;11.91;85.07
58668;BME280;59852;43.086;25.634;2023-05-09T01:43:15;99311.69;;;11.90;84.54
58668;BME280;59852;43.086;25.634;2023-05-09T01:45:42;99313.03;;;11.95;85.17
58668;BME280;59852;43.086;25.634;2023-05-09T01:48:08;99309.69;;;11.93;85.01
58668;BME280;59852;43.086;25.634;2023-05-09T01:50:34;99316.75;;;11.78;85.64
58668;BME280;59852;43.086;25.634;2023-05-09T01:53:00;99315.66;;;11.83;86.21
58668;BME280;59852;43.086;25.634;2023-05-09T01:55:26;99316.16;;;11.48;87.23
58668;BME280;59852;43.086;25.634;2023-05-09T01:57:52;99305.09;;;11.57;87.19
58668;BME280;59852;43.086;25.634;2023-05-09T02:00:18;99307.72;;;11.70;86.86
58668;BME280;59852;43.086;25.634;2023-05-09T02:02:44;99304.34;;;11.42;87.99
58668;BME280;59852;43.086;25.634;2023-05-09T02:05:09;99305.63;;;11.62;88.35
58668;BME280;59852;43.086;25.634;2023-05-09T02:07:36;99303.78;;;11.10;90.55
58668;BME280;59852;43.086;25.634;2023-05-09T02:10:01;99307.69;;;11.17;88.99
58668;BME280;59852;43.086;25.634;2023-05-09T02:12:27;99306.38;;;11.64;87.83
58668;BME280;59852;43.086;25.634;2023-05-09T02:14:52;99309.63;;;11.28;88.39
58668;BME280;59852;43.086;25.634;2023-05-09T02:17:18;99307.59;;;11.19;89.00
58668;BME280;59852;43.086;25.634;2023-05-09T02:19:43;99309.72;;;11.27;89.60
58668;BME280;59852;43.086;25.634;2023-05-09T02:22:09;99310.06;;;11.08;90.24
58668;BME280;59852;43.086;25.634;2023-05-09T02:24:36;99316.53;;;11.29;88.44
58668;BME280;59852;43.086;25.634;2023-05-09T02:27:02;99311.66;;;10.83;91.30
58668;BME280;59852;43.086;25.634;2023-05-09T02:29:34;99310.88;;;10.26;93.19
58668;BME280;59852;43.086;25.634;2023-05-09T02:32:08;99305.16;;;11.03;90.14
58668;BME280;59852;43.086;25.634;2023-05-09T02:34:35;99318.47;;;10.86;89.75
58668;BME280;59852;43.086;25.634;2023-05-09T02:37:01;99317.94;;;11.35;87.74
58668;BME280;59852;43.086;25.634;2023-05-09T02:39:27;99327.72;;;10.91;89.46
58668;BME280;59852;43.086;25.634;2023-05-09T02:41:52;99323.38;;;10.90;88.25
58668;BME280;59852;43.086;25.634;2023-05-09T02:44:17;99325.97;;;11.05;89.09
58668;BME280;59852;43.086;25.634;2023-05-09T02:46:43;99321.28;;;11.10;87.38
58668;BME280;59852;43.086;25.634;2023-05-09T02:49:08;99332.00;;;10.93;89.41
58668;BME280;59852;43.086;25.634;2023-05-09T02:51:33;99323.31;;;10.92;88.41
58668;BME280;59852;43.086;25.634;2023-05-09T02:53:59;99329.53;;;10.48;90.79
58668;BME280;59852;43.086;25.634;2023-05-09T02:56:24;99331.16;;;10.92;89.18
58668;BME280;59852;43.086;25.634;2023-05-09T02:58:50;99342.47;;;10.78;89.82
58668;BME280;59852;43.086;25.634;2023-05-09T03:01:15;99325.22;;;10.61;88.67
58668;BME280;59852;43.086;25.634;2023-05-09T03:03:41;99345.88;;;10.38;91.76
58668;BME280;59852;43.086;25.634;2023-05-09T03:06:06;99337.81;;;10.69;90.32
58668;BME280;59852;43.086;25.634;2023-05-09T03:08:32;99351.97;;;10.08;91.54
58668;BME280;59852;43.086;25.634;2023-05-09T03:10:57;99346.25;;;10.74;90.68
58668;BME280;59852;43.086;25.634;2023-05-09T03:13:23;99348.66;;;10.77;89.49
58668;BME280;59852;43.086;25.634;2023-05-09T03:15:48;99351.09;;;10.52;92.29
58668;BME280;59852;43.086;25.634;2023-05-09T03:18:13;99360.56;;;9.96;91.63
58668;BME280;59852;43.086;25.634;2023-05-09T03:20:39;99360.25;;;10.59;89.98
58668;BME280;59852;43.086;25.634;2023-05-09T03:23:04;99362.41;;;10.67;88.86
58668;BME280;59852;43.086;25.634;2023-05-09T03:25:29;99355.03;;;10.45;91.39
58668;BME280;59852;43.086;25.634;2023-05-09T03:27:55;99369.06;;;10.72;89.70
58668;BME280;59852;43.086;25.634;2023-05-09T03:30:20;99379.69;;;10.69;90.64
58668;BME280;59852;43.086;25.634;2023-05-09T03:32:46;99373.91;;;10.50;89.21
58668;BME280;59852;43.086;25.634;2023-05-09T03:35:11;99376.59;;;10.48;90.12
58668;BME280;59852;43.086;25.634;2023-05-09T03:37:36;99376.78;;;10.59;90.49
58668;BME280;59852;43.086;25.634;2023-05-09T03:40:02;99373.91;;;10.64;89.91
58668;BME280;59852;43.086;25.634;2023-05-09T03:42:28;99391.28;;;10.65;89.18
58668;BME280;59852;43.086;25.634;2023-05-09T03:44:53;99387.53;;;10.41;89.85
58668;BME280;59852;43.086;25.634;2023-05-09T03:47:19;99399.06;;;10.22;90.17
58668;BME280;59852;43.086;25.634;2023-05-09T03:49:44;99385.78;;;10.55;87.11
58668;BME280;59852;43.086;25.634;2023-05-09T03:52:10;99398.28;;;10.93;86.61
58668;BME280;59852;43.086;25.634;2023-05-09T03:54:35;99395.28;;;10.56;86.46
58668;BME280;59852;43.086;25.634;2023-05-09T03:57:01;99399.50;;;10.45;87.13
58668;BME280;59852;43.086;25.634;2023-05-09T03:59:26;99397.91;;;10.42;87.04
58668;BME280;59852;43.086;25.634;2023-05-09T04:01:51;99408.53;;;10.39;87.78
58668;BME280;59852;43.086;25.634;2023-05-09T04:04:17;99405.97;;;10.53;87.48
58668;BME280;59852;43.086;25.634;2023-05-09T04:06:43;99406.13;;;10.65;86.92
58668;BME280;59852;43.086;25.634;2023-05-09T04:09:08;99403.78;;;10.46;86.61
58668;BME280;59852;43.086;25.634;2023-05-09T04:11:34;99411.34;;;10.36;88.25
58668;BME280;59852;43.086;25.634;2023-05-09T04:13:59;99411.94;;;10.55;87.14
58668;BME280;59852;43.086;25.634;2023-05-09T04:16:25;99414.75;;;10.52;87.28
58668;BME280;59852;43.086;25.634;2023-05-09T04:18:50;99419.59;;;10.44;87.00
58668;BME280;59852;43.086;25.634;2023-05-09T04:21:15;99420.41;;;10.45;87.31
58668;BME280;59852;43.086;25.634;2023-05-09T04:23:41;99421.16;;;10.47;86.95
58668;BME280;59852;43.086;25.634;2023-05-09T04:26:08;99417.63;;;10.62;86.84
58668;BME280;59852;43.086;25.634;2023-05-09T04:28:33;99410.06;;;10.43;87.50
58668;BME280;59852;43.086;25.634;2023-05-09T04:30:59;99425.94;;;10.54;87.32
58668;BME280;59852;43.086;25.634;2023-05-09T04:33:24;99422.34;;;10.41;86.39
58668;BME280;59852;43.086;25.634;2023-05-09T04:35:50;99424.78;;;10.00;88.51
58668;BME280;59852;43.086;25.634;2023-05-09T04:38:15;99435.22;;;10.00;88.99
58668;BME280;59852;43.086;25.634;2023-05-09T04:40:41;99428.44;;;10.42;87.01
58668;BME280;59852;43.086;25.634;2023-05-09T04:43:06;99424.72;;;10.46;86.51
58668;BME280;59852;43.086;25.634;2023-05-09T04:45:32;99430.75;;;10.32;87.14
58668;BME280;59852;43.086;25.634;2023-05-09T04:47:57;99431.63;;;10.32;86.12
58668;BME280;59852;43.086;25.634;2023-05-09T04:50:22;99438.63;;;10.16;87.10
58668;BME280;59852;43.086;25.634;2023-05-09T04:52:48;99440.00;;;10.23;86.80
58668;BME280;59852;43.086;25.634;2023-05-09T04:55:14;99442.59;;;9.93;88.43
58668;BME280;59852;43.086;25.634;2023-05-09T04:57:39;99436.56;;;10.23;86.03
58668;BME280;59852;43.086;25.634;2023-05-09T05:00:04;99442.53;;;10.09;87.16
58668;BME280;59852;43.086;25.634;2023-05-09T05:02:35;99438.81;;;10.43;87.30
58668;BME280;59852;43.086;25.634;2023-05-09T05:05:00;99450.38;;;10.25;86.11
58668;BME280;59852;43.086;25.634;2023-05-09T05:07:26;99452.56;;;10.17;85.74
58668;BME280;59852;43.086;25.634;2023-05-09T05:09:51;99446.19;;;9.91;86.51
58668;BME280;59852;43.086;25.634;2023-05-09T05:12:16;99447.75;;;9.79;87.17
58668;BME280;59852;43.086;25.634;2023-05-09T05:14:42;99455.34;;;9.84;87.02
58668;BME280;59852;43.086;25.634;2023-05-09T05:17:07;99468.47;;;9.82;88.20
58668;BME280;59852;43.086;25.634;2023-05-09T05:19:32;99454.59;;;9.50;87.24
58668;BME280;59852;43.086;25.634;2023-05-09T05:21:58;99461.56;;;9.81;86.42
58668;BME280;59852;43.086;25.634;2023-05-09T05:24:23;99454.03;;;9.91;85.63
58668;BME280;59852;43.086;25.634;2023-05-09T05:26:49;99453.50;;;9.23;88.40
58668;BME280;59852;43.086;25.634;2023-05-09T05:29:14;99455.63;;;9.32;88.00
58668;BME280;59852;43.086;25.634;2023-05-09T05:31:39;99456.19;;;9.68;86.84
58668;BME280;59852;43.086;25.634;2023-05-09T05:34:05;99457.78;;;9.87;86.00
58668;BME280;59852;43.086;25.634;2023-05-09T05:36:30;99466.03;;;9.79;86.26
58668;BME280;59852;43.086;25.634;2023-05-09T05:38:56;99462.50;;;9.80;86.03
58668;BME280;59852;43.086;25.634;2023-05-09T05:41:21;99473.25;;;9.90;87.03
58668;BME280;59852;43.086;25.634;2023-05-09T05:43:47;99474.94;;;9.91;86.02
58668;BME280;59852;43.086;25.634;2023-05-09T05:46:12;99480.22;;;9.75;86.33
58668;BME280;59852;43.086;25.634;2023-05-09T05:48:38;99474.31;;;9.40;88.00
58668;BME280;59852;43.086;25.634;2023-05-09T05:51:03;99482.56;;;9.80;86.70
58668;BME280;59852;43.086;25.634;2023-05-09T05:53:28;99482.56;;;9.80;84.64
58668;BME280;59852;43.086;25.634;2023-05-09T05:55:54;99482.25;;;9.54;86.71
58668;BME280;59852;43.086;25.634;2023-05-09T05:58:20;99485.25;;;9.78;84.90
58668;BME280;59852;43.086;25.634;2023-05-09T06:00:45;99479.44;;;9.73;84.87
58668;BME280;59852;43.086;25.634;2023-05-09T06:03:11;99474.28;;;10.03;83.92
58668;BME280;59852;43.086;25.634;2023-05-09T06:05:44;99477.50;;;9.29;86.69
58668;BME280;59852;43.086;25.634;2023-05-09T06:08:10;99476.28;;;9.98;85.77
58668;BME280;59852;43.086;25.634;2023-05-09T06:10:36;99481.56;;;9.66;85.70
58668;BME280;59852;43.086;25.634;2023-05-09T06:13:01;99481.56;;;9.35;88.70
58668;BME280;59852;43.086;25.634;2023-05-09T06:15:26;99476.84;;;9.26;87.20
58668;BME280;59852;43.086;25.634;2023-05-09T06:17:52;99487.13;;;9.76;85.71
58668;BME280;59852;43.086;25.634;2023-05-09T06:20:17;99492.72;;;10.00;84.72
58668;BME280;59852;43.086;25.634;2023-05-09T06:22:43;99491.97;;;9.98;85.53
58668;BME280;59852;43.086;25.634;2023-05-09T06:25:08;99488.34;;;10.00;84.02
58668;BME280;59852;43.086;25.634;2023-05-09T06:27:34;99485.59;;;9.88;84.80
58668;BME280;59852;43.086;25.634;2023-05-09T06:29:59;99494.88;;;9.62;87.50
58668;BME280;59852;43.086;25.634;2023-05-09T06:32:24;99489.44;;;9.96;85.85
58668;BME280;59852;43.086;25.634;2023-05-09T06:34:50;99497.19;;;9.98;85.87
58668;BME280;59852;43.086;25.634;2023-05-09T06:37:16;99499.91;;;9.96;84.85
58668;BME280;59852;43.086;25.634;2023-05-09T06:39:41;99504.84;;;10.01;84.56
58668;BME280;59852;43.086;25.634;2023-05-09T06:42:07;99505.22;;;9.79;87.02
58668;BME280;59852;43.086;25.634;2023-05-09T06:44:32;99502.59;;;9.63;88.03
58668;BME280;59852;43.086;25.634;2023-05-09T06:46:58;99493.13;;;10.24;85.84
58668;BME280;59852;43.086;25.634;2023-05-09T06:49:23;99496.41;;;9.66;84.63
58668;BME280;59852;43.086;25.634;2023-05-09T06:51:48;99492.28;;;9.46;87.10
58668;BME280;59852;43.086;25.634;2023-05-09T06:54:14;99483.78;;;10.04;84.76
58668;BME280;59852;43.086;25.634;2023-05-09T06:56:41;99487.38;;;10.17;83.67
58668;BME280;59852;43.086;25.634;2023-05-09T06:59:06;99491.09;;;10.13;84.05
58668;BME280;59852;43.086;25.634;2023-05-09T07:01:31;99498.53;;;10.05;83.65
58668;BME280;59852;43.086;25.634;2023-05-09T07:03:57;99499.06;;;9.96;84.90
58668;BME280;59852;43.086;25.634;2023-05-09T07:06:23;99496.78;;;10.05;83.63
58668;BME280;59852;43.086;25.634;2023-05-09T07:08:49;99501.13;;;9.75;84.18
58668;BME280;59852;43.086;25.634;2023-05-09T07:11:14;99493.63;;;10.15;83.84
58668;BME280;59852;43.086;25.634;2023-05-09T07:13:40;99492.59;;;10.17;83.28
58668;BME280;59852;43.086;25.634;2023-05-09T07:16:05;99488.84;;;10.23;82.82
58668;BME280;59852;43.086;25.634;2023-05-09T07:18:31;99497.66;;;10.36;84.17
58668;BME280;59852;43.086;25.634;2023-05-09T07:20:56;99498.09;;;10.28;82.75
58668;BME280;59852;43.086;25.634;2023-05-09T07:23:22;99497.75;;;10.49;83.05
58668;BME280;59852;43.086;25.634;2023-05-09T07:25:47;99498.34;;;10.54;81.16
58668;BME280;59852;43.086;25.634;2023-05-09T07:28:12;99498.03;;;9.98;83.14
58668;BME280;59852;43.086;25.634;2023-05-09T07:30:38;99489.69;;;10.38;82.37
58668;BME280;59852;43.086;25.634;2023-05-09T07:33:03;99498.66;;;10.18;82.12
58668;BME280;59852;43.086;25.634;2023-05-09T07:35:28;99494.81;;;10.09;82.89
58668;BME280;59852;43.086;25.634;2023-05-09T07:37:54;99503.31;;;10.28;81.88
58668;BME280;59852;43.086;25.634;2023-05-09T07:40:19;99499.38;;;10.05;83.41
58668;BME280;59852;43.086;25.634;2023-05-09T07:42:45;99508.59;;;10.43;82.35
58668;BME280;59852;43.086;25.634;2023-05-09T07:45:13;99503.41;;;10.27;83.78
58668;BME280;59852;43.086;25.634;2023-05-09T07:47:39;99504.25;;;10.27;82.64
58668;BME280;59852;43.086;25.634;2023-05-09T07:50:04;99505.44;;;10.06;83.09
58668;BME280;59852;43.086;25.634;2023-05-09T07:52:30;99507.25;;;10.36;82.83
58668;BME280;59852;43.086;25.634;2023-05-09T07:54:55;99502.88;;;10.36;82.60
58668;BME280;59852;43.086;25.634;2023-05-09T07:57:21;99501.19;;;10.35;82.00
58668;BME280;59852;43.086;25.634;2023-05-09T07:59:46;99495.47;;;10.13;82.03
58668;BME280;59852;43.086;25.634;2023-05-09T08:02:12;99505.28;;;10.25;83.51
58668;BME280;59852;43.086;25.634;2023-05-09T08:04:37;99506.84;;;10.27;82.82
58668;BME280;59852;43.086;25.634;2023-05-09T08:07:05;99508.28;;;10.17;83.69
58668;BME280;59852;43.086;25.634;2023-05-09T08:09:31;99506.75;;;10.29;83.80
58668;BME280;59852;43.086;25.634;2023-05-09T08:11:56;99515.63;;;10.11;83.09
58668;BME280;59852;43.086;25.634;2023-05-09T08:14:22;99513.16;;;10.39;84.61
58668;BME280;59852;43.086;25.634;2023-05-09T08:16:47;99516.84;;;10.65;81.70
58668;BME280;59852;43.086;25.634;2023-05-09T08:19:13;99505.75;;;10.31;83.64
58668;BME280;59852;43.086;25.634;2023-05-09T08:21:38;99517.03;;;10.32;82.79
58668;BME280;59852;43.086;25.634;2023-05-09T08:24:04;99510.22;;;10.29;83.68
58668;BME280;59852;43.086;25.634;2023-05-09T08:26:32;99510.59;;;10.23;81.78
58668;BME280;59852;43.086;25.634;2023-05-09T08:28:59;99507.56;;;10.45;81.56
58668;BME280;59852;43.086;25.634;2023-05-09T08:31:25;99506.22;;;10.24;83.28
58668;BME280;59852;43.086;25.634;2023-05-09T08:33:51;99499.81;;;10.44;82.25
58668;BME280;59852;43.086;25.634;2023-05-09T08:36:16;99505.50;;;10.36;82.61
58668;BME280;59852;43.086;25.634;2023-05-09T08:38:41;99509.75;;;10.53;83.99
58668;BME280;59852;43.086;25.634;2023-05-09T08:41:07;99498.84;;;10.75;82.24
58668;BME280;59852;43.086;25.634;2023-05-09T08:43:32;99511.03;;;10.60;80.82
58668;BME280;59852;43.086;25.634;2023-05-09T08:45:58;99500.72;;;10.73;81.17
58668;BME280;59852;43.086;25.634;2023-05-09T08:48:25;99508.00;;;10.82;81.73
58668;BME280;59852;43.086;25.634;2023-05-09T08:50:52;99519.16;;;10.55;81.49
58668;BME280;59852;43.086;25.634;2023-05-09T08:53:18;99520.13;;;10.69;80.37
58668;BME280;59852;43.086;25.634;2023-05-09T08:55:45;99521.66;;;10.73;82.18
58668;BME280;59852;43.086;25.634;2023-05-09T08:58:11;99510.34;;;10.72;81.22
58668;BME280;59852;43.086;25.634;2023-05-09T09:00:37;99512.38;;;10.81;80.32
58668;BME280;59852;43.086;25.634;2023-05-09T09:03:03;99511.06;;;10.30;82.24
58668;BME280;59852;43.086;25.634;2023-05-09T09:05:30;99501.81;;;10.69;81.21
58668;BME280;59852;43.086;25.634;2023-05-09T09:07:57;99502.94;;;10.65;81.43
58668;BME280;59852;43.086;25.634;2023-05-09T09:10:23;99498.72;;;10.62;80.96
58668;BME280;59852;43.086;25.634;2023-05-09T09:12:52;99506.28;;;10.52;80.87
58668;BME280;59852;43.086;25.634;2023-05-09T09:15:17;99506.00;;;10.57;82.24
58668;BME280;59852;43.086;25.634;2023-05-09T09:17:44;99509.69;;;10.83;81.85
58668;BME280;59852;43.086;25.634;2023-05-09T09:20:11;99515.19;;;10.78;80.48
58668;BME280;59852;43.086;25.634;2023-05-09T09:22:39;99509.75;;;10.81;80.44
58668;BME280;59852;43.086;25.634;2023-05-09T09:25:06;99516.72;;;10.22;81.10
58668;BME280;59852;43.086;25.634;2023-05-09T09:27:32;99516.16;;;10.47;80.83
58668;BME280;59852;43.086;25.634;2023-05-09T09:30:07;99519.16;;;10.55;80.74
58668;BME280;59852;43.086;25.634;2023-05-09T09:32:33;99515.44;;;10.59;80.98
58668;BME280;59852;43.086;25.634;2023-05-09T09:35:10;99517.16;;;10.75;81.01
58668;BME280;59852;43.086;25.634;2023-05-09T09:37:37;99507.72;;;10.86;79.94
58668;BME280;59852;43.086;25.634;2023-05-09T09:40:04;99511.06;;;10.88;81.11
58668;BME280;59852;43.086;25.634;2023-05-09T09:42:40;99508.28;;;10.77;80.29
58668;BME280;59852;43.086;25.634;2023-05-09T09:47:35;99508.28;;;11.06;79.55
58668;BME280;59852;43.086;25.634;2023-05-09T09:50:08;99510.16;;;11.04;79.35
58668;BME280;59852;43.086;25.634;2023-05-09T09:52:33;99515.56;;;11.01;79.67
58668;BME280;59852;43.086;25.634;2023-05-09T09:54:58;99508.84;;;11.11;78.72
58668;BME280;59852;43.086;25.634;2023-05-09T09:57:34;99512.88;;;11.16;80.10
58668;BME280;59852;43.086;25.634;2023-05-09T10:00:01;99512.47;;;10.80;80.31
58668;BME280;59852;43.086;25.634;2023-05-09T10:02:26;99509.41;;;11.02;80.64
58668;BME280;59852;43.086;25.634;2023-05-09T10:04:51;99515.00;;;11.10;81.35
58668;BME280;59852;43.086;25.634;2023-05-09T10:07:17;99518.47;;;11.10;80.64
58668;BME280;59852;43.086;25.634;2023-05-09T10:09:46;99522.84;;;11.10;81.16
58668;BME280;59852;43.086;25.634;2023-05-09T10:12:13;99516.06;;;10.93;81.98
58668;BME280;59852;43.086;25.634;2023-05-09T10:14:40;99521.75;;;11.14;82.73
58668;BME280;59852;43.086;25.634;2023-05-09T10:17:06;99513.22;;;11.10;81.48
58668;BME280;59852;43.086;25.634;2023-05-09T10:19:32;99524.75;;;10.94;82.52
58668;BME280;59852;43.086;25.634;2023-05-09T10:22:04;99519.50;;;10.94;80.51
58668;BME280;59852;43.086;25.634;2023-05-09T10:24:40;99525.69;;;11.07;81.58
58668;BME280;59852;43.086;25.634;2023-05-09T10:27:08;99516.69;;;11.11;80.96
58668;BME280;59852;43.086;25.634;2023-05-09T10:29:35;99519.13;;;11.28;80.47
58668;BME280;59852;43.086;25.634;2023-05-09T10:32:03;99529.59;;;11.28;81.03
58668;BME280;59852;43.086;25.634;2023-05-09T10:34:32;99520.06;;;11.27;81.15
58668;BME280;59852;43.086;25.634;2023-05-09T10:36:58;99518.84;;;11.18;81.18
58668;BME280;59852;43.086;25.634;2023-05-09T10:39:24;99517.63;;;11.24;81.36
58668;BME280;59852;43.086;25.634;2023-05-09T10:41:51;99520.72;;;11.16;80.80
58668;BME280;59852;43.086;25.634;2023-05-09T10:44:17;99516.22;;;11.33;82.47
58668;BME280;59852;43.086;25.634;2023-05-09T10:46:43;99515.28;;;11.19;81.03
58668;BME280;59852;43.086;25.634;2023-05-09T10:49:08;99515.47;;;11.16;80.41
58668;BME280;59852;43.086;25.634;2023-05-09T10:51:34;99515.75;;;11.26;80.35
58668;BME280;59852;43.086;25.634;2023-05-09T10:53:59;99520.81;;;11.15;81.15
58668;BME280;59852;43.086;25.634;2023-05-09T10:56:29;99521.84;;;11.27;81.34
58668;BME280;59852;43.086;25.634;2023-05-09T10:58:55;99518.19;;;11.43;81.51
58668;BME280;59852;43.086;25.634;2023-05-09T11:01:28;99516.81;;;11.24;80.64
58668;BME280;59852;43.086;25.634;2023-05-09T11:03:57;99512.09;;;11.29;80.89
58668;BME280;59852;43.086;25.634;2023-05-09T11:12:00;99512.94;;;11.29;81.23
58668;BME280;59852;43.086;25.634;2023-05-09T11:17:03;99507.44;;;11.19;80.80
58668;BME280;59852;43.086;25.634;2023-05-09T11:22:14;99502.13;;;11.21;79.62
58668;BME280;59852;43.086;25.634;2023-05-09T11:24:44;99508.66;;;11.28;80.35
58668;BME280;59852;43.086;25.634;2023-05-09T11:27:24;99514.34;;;11.35;81.47
58668;BME280;59852;43.086;25.634;2023-05-09T11:29:57;99510.50;;;11.40;81.57
58668;BME280;59852;43.086;25.634;2023-05-09T11:32:26;99514.34;;;11.35;78.43
58668;BME280;59852;43.086;25.634;2023-05-09T11:35:02;99511.44;;;11.39;80.10
58668;BME280;59852;43.086;25.634;2023-05-09T11:37:29;99509.38;;;11.44;79.89
58668;BME280;59852;43.086;25.634;2023-05-09T11:39:56;99511.06;;;11.45;80.40
58668;BME280;59852;43.086;25.634;2023-05-09T11:42:23;99511.25;;;11.42;80.63
58668;BME280;59852;43.086;25.634;2023-05-09T11:44:48;99510.44;;;11.42;78.61
58668;BME280;59852;43.086;25.634;2023-05-09T11:47:14;99513.69;;;11.45;79.07
58668;BME280;59852;43.086;25.634;2023-05-09T11:49:43;99508.72;;;11.55;79.54
58668;BME280;59852;43.086;25.634;2023-05-09T11:52:08;99516.31;;;11.45;79.67
58668;BME280;59852;43.086;25.634;2023-05-09T11:54:37;99512.63;;;11.48;79.65
58668;BME280;59852;43.086;25.634;2023-05-09T11:57:03;99514.41;;;11.47;79.42
58668;BME280;59852;43.086;25.634;2023-05-09T11:59:28;99515.56;;;11.43;80.54
58668;BME280;59852;43.086;25.634;2023-05-09T12:01:54;99517.06;;;11.33;81.36
58668;BME280;59852;43.086;25.634;2023-05-09T12:04:19;99516.97;;;11.35;80.65
58668;BME280;59852;43.086;25.634;2023-05-09T12:06:47;99511.44;;;11.39;80.32
58668;BME280;59852;43.086;25.634;2023-05-09T12:09:13;99513.88;;;11.42;79.99
58668;BME280;59852;43.086;25.634;2023-05-09T12:11:49;99514.56;;;11.32;80.42
58668;BME280;59852;43.086;25.634;2023-05-09T12:16:52;99504.50;;;11.38;79.86
58668;BME280;59852;43.086;25.634;2023-05-09T12:19:17;99505.63;;;11.48;79.13
58668;BME280;59852;43.086;25.634;2023-05-09T12:21:43;99497.03;;;11.46;79.37
58668;BME280;59852;43.086;25.634;2023-05-09T12:24:08;99506.47;;;11.49;79.46
58668;BME280;59852;43.086;25.634;2023-05-09T12:26:34;99495.06;;;11.36;79.02
58668;BME280;59852;43.086;25.634;2023-05-09T12:28:59;99495.16;;;11.48;79.35
58668;BME280;59852;43.086;25.634;2023-05-09T12:31:25;99495.25;;;11.47;80.33
58668;BME280;59852;43.086;25.634;2023-05-09T12:33:50;99491.78;;;11.46;79.55
58668;BME280;59852;43.086;25.634;2023-05-09T12:36:15;99483.56;;;11.38;80.05
58668;BME280;59852;43.086;25.634;2023-05-09T12:38:50;99488.22;;;11.47;80.21
58668;BME280;59852;43.086;25.634;2023-05-09T12:41:16;99485.59;;;11.47;79.77
58668;BME280;59852;43.086;25.634;2023-05-09T12:43:45;99488.06;;;11.51;79.05
58668;BME280;59852;43.086;25.634;2023-05-09T12:46:12;99482.16;;;11.47;77.77
58668;BME280;59852;43.086;25.634;2023-05-09T12:48:42;99472.75;;;11.57;77.00
58668;BME280;59852;43.086;25.634;2023-05-09T12:51:08;99469.63;;;11.52;77.79
58668;BME280;59852;43.086;25.634;2023-05-09T12:53:37;99467.41;;;11.59;78.70
58668;BME280;59852;43.086;25.634;2023-05-09T12:56:03;99469.19;;;11.58;78.93
58668;BME280;59852;43.086;25.634;2023-05-09T12:58:31;99468.31;;;11.45;78.46
58668;BME280;59852;43.086;25.634;2023-05-09T13:00:57;99469.78;;;11.49;78.91
58668;BME280;59852;43.086;25.634;2023-05-09T13:03:23;99469.03;;;11.61;78.06
58668;BME280;59852;43.086;25.634;2023-05-09T13:05:53;99471.28;;;11.53;78.15
58668;BME280;59852;43.086;25.634;2023-05-09T13:08:19;99474.53;;;11.57;77.70
58668;BME280;59852;43.086;25.634;2023-05-09T13:10:45;99468.63;;;11.67;77.58